< < Back
Terminal Aerodrome Forecast


Current Version              Previous Versions:   1  2  3  4  5  6  7  8  9  

Terminal Aerodrome Forecast

032
FTUS42 KGSP 201200 AAA
TAFAVL
TAF AMD
KAVL 201213Z 2012/2112 22003KT 5SM BR BKN240
      TEMPO 2012/2014 1/4SM FG OVC001
     FM201500 20005KT P6SM BKN250
     FM210800 32003KT 4SM BR BKN070=

Latest METAR

307
SAUS70 KWBC 210800 RRC
MTRAVL
METAR KAVL 210754Z AUTO 00000KT 2 1/2SM BR FEW002 07/06 A2999 RMK AO2
SLP144 T00670056


USA.gov is the U.S. government's official web portal to all federal, state and local government web resources and services.